createdAt,value
2022-09-03T00:00:14.681Z,2.90
2022-09-03T00:03:23.822Z,3.63
2022-09-03T00:06:28.690Z,2.15
2022-09-03T00:09:41.468Z,2.35
2022-09-03T00:12:32.071Z,2.13
2022-09-03T00:15:23.647Z,2.28
2022-09-03T00:18:20.785Z,2.95
2022-09-03T00:21:18.063Z,2.92
2022-09-03T00:24:07.178Z,3.72
2022-09-03T00:27:06.448Z,1.20
2022-09-03T00:29:57.954Z,1.92
2022-09-03T00:32:48.420Z,0.85
2022-09-03T00:35:45.021Z,1.35
2022-09-03T00:38:30.918Z,1.90
2022-09-03T00:41:59.241Z,2.22
2022-09-03T00:44:57.082Z,2.90
2022-09-03T00:48:07.894Z,1.48
2022-09-03T00:51:00.826Z,0.95
2022-09-03T00:53:54.658Z,1.95
2022-09-03T00:57:05.758Z,0.43
2022-09-03T01:00:15.557Z,0.60
2022-09-03T01:03:06.815Z,0.47
2022-09-03T01:06:03.565Z,0.13
2022-09-03T01:08:57.131Z,0.40
2022-09-03T01:11:59.611Z,1.02
2022-09-03T01:14:56.934Z,2.92
2022-09-03T01:17:54.864Z,1.73
2022-09-03T01:20:43.240Z,1.85
2022-09-03T01:23:43.466Z,1.75
2022-09-03T01:26:59.237Z,3.97
2022-09-03T01:30:04.154Z,2.45
2022-09-03T01:33:29.799Z,3.70
2022-09-03T01:36:28.442Z,4.25
2022-09-03T01:39:42.984Z,2.97
2022-09-03T01:42:37.225Z,3.33
2022-09-03T01:45:31.874Z,0.77
2022-09-03T01:48:35.313Z,0.90
2022-09-03T01:51:29.541Z,0.77
2022-09-03T01:54:52.216Z,0.55
2022-09-03T01:58:07.863Z,0.10
2022-09-03T02:01:01.790Z,2.55
2022-09-03T02:03:48.471Z,1.33
2022-09-03T02:06:34.222Z,0.20
2022-09-03T02:09:21.258Z,1.10
2022-09-03T02:12:16.606Z,0.10
2022-09-03T02:15:07.096Z,0.52
2022-09-03T02:17:56.530Z,0.38
2022-09-03T02:20:43.089Z,1.55
2022-09-03T02:23:29.857Z,2.35
2022-09-03T02:26:20.295Z,4.07
2022-09-03T02:29:06.521Z,2.95
2022-09-03T02:31:52.051Z,2.78
2022-09-03T02:34:38.379Z,1.55
2022-09-03T02:37:24.285Z,1.73
2022-09-03T02:40:11.050Z,3.03
2022-09-03T02:42:57.499Z,3.00
2022-09-03T02:45:48.708Z,1.98
2022-09-03T02:48:35.005Z,1.90
2022-09-03T02:51:20.690Z,3.00
2022-09-03T02:54:07.481Z,3.22
2022-09-03T02:56:53.291Z,2.92
2022-09-03T02:59:40.004Z,2.83
2022-09-03T03:02:25.809Z,2.83
2022-09-03T03:05:24.777Z,1.55
2022-09-03T03:08:15.035Z,3.55
2022-09-03T03:11:02.082Z,2.85
2022-09-03T03:13:47.734Z,4.63
2022-09-03T03:16:33.669Z,1.48
2022-09-03T03:19:19.290Z,1.85
2022-09-03T03:22:04.837Z,0.28
2022-09-03T03:24:50.570Z,1.23
2022-09-03T03:27:42.197Z,1.50
2022-09-03T03:30:28.001Z,0.90
2022-09-03T03:33:13.595Z,0.45
2022-09-03T03:36:03.309Z,0.52
2022-09-03T03:38:49.113Z,0.20
2022-09-03T03:41:36.374Z,1.02
2022-09-03T03:44:22.131Z,0.52
2022-09-03T03:47:07.489Z,0.10
2022-09-03T03:49:53.061Z,0.85
2022-09-03T03:52:38.921Z,0.10
2022-09-03T03:55:27.013Z,0.20
2022-09-03T03:58:12.657Z,0.10
2022-09-03T04:01:13.150Z,0.10
2022-09-03T04:04:00.464Z,0.98
2022-09-03T04:06:46.306Z,0.50
2022-09-03T04:09:32.243Z,0.30
2022-09-03T04:12:19.212Z,0.10
2022-09-03T04:15:06.828Z,0.10
2022-09-03T04:17:55.287Z,0.10
2022-09-03T04:20:41.271Z,0.20
2022-09-03T04:23:28.235Z,0.10
2022-09-03T04:26:16.775Z,0.10
2022-09-03T04:29:05.383Z,0.52
2022-09-03T04:32:09.942Z,0.25
2022-09-03T04:34:55.553Z,2.85
2022-09-03T04:37:41.012Z,1.83
2022-09-03T04:40:26.460Z,1.83
2022-09-03T04:43:11.938Z,1.35
2022-09-03T04:46:02.547Z,1.30
2022-09-03T04:48:51.293Z,0.68
2022-09-03T04:51:38.492Z,1.80
2022-09-03T04:54:24.818Z,1.42
2022-09-03T04:57:14.819Z,2.45
2022-09-03T05:00:00.654Z,0.17
2022-09-03T05:02:51.770Z,1.05
2022-09-03T05:05:37.451Z,1.38
2022-09-03T05:08:23.395Z,4.30
2022-09-03T05:11:09.064Z,3.17
2022-09-03T05:13:57.060Z,4.50
2022-09-03T05:16:42.971Z,3.65
2022-09-03T05:19:38.470Z,1.88
2022-09-03T05:22:24.087Z,2.65
2022-09-03T05:25:10.026Z,0.20
2022-09-03T05:27:55.838Z,3.17
2022-09-03T05:30:41.484Z,1.05
2022-09-03T05:33:28.023Z,0.40
2022-09-03T05:36:16.072Z,1.73
2022-09-03T05:39:06.116Z,2.80
2022-09-03T05:41:53.131Z,2.38
2022-09-03T05:44:39.076Z,0.30
2022-09-03T05:47:24.947Z,0.73
2022-09-03T05:50:10.932Z,1.52
2022-09-03T05:52:58.974Z,1.10
2022-09-03T05:55:44.693Z,0.20
2022-09-03T05:58:39.529Z,0.22
2022-09-03T06:01:31.232Z,2.28
2022-09-03T06:04:17.438Z,0.30
2022-09-03T06:07:03.127Z,0.22
2022-09-03T06:09:48.633Z,0.30
2022-09-03T06:12:34.263Z,0.28
2022-09-03T06:15:19.697Z,2.08
2022-09-03T06:18:05.722Z,2.33
2022-09-03T06:21:18.078Z,1.50
2022-09-03T06:24:04.024Z,2.85
2022-09-03T06:26:50.244Z,3.63
2022-09-03T06:29:36.324Z,2.72
2022-09-03T06:32:21.900Z,1.85
2022-09-03T06:35:08.185Z,1.67
2022-09-03T06:37:54.042Z,1.45
2022-09-03T06:40:40.327Z,2.70
2022-09-03T06:43:26.792Z,2.72
2022-09-03T06:46:15.362Z,1.95
2022-09-03T06:49:00.945Z,3.13
2022-09-03T06:51:47.883Z,2.30
2022-09-03T06:54:33.727Z,0.32
2022-09-03T06:57:20.509Z,2.30
2022-09-03T07:00:07.050Z,0.10
2022-09-03T07:02:59.105Z,3.47
2022-09-03T07:05:45.392Z,3.70
2022-09-03T07:08:33.418Z,3.67
2022-09-03T07:11:22.656Z,4.50
2022-09-03T07:14:15.050Z,2.10
2022-09-03T07:17:00.612Z,5.20
2022-09-03T07:19:46.153Z,5.72
2022-09-03T07:22:32.291Z,6.70
2022-09-03T07:25:18.689Z,5.60
2022-09-03T07:28:06.888Z,4.25
2022-09-03T07:30:54.675Z,1.65
2022-09-03T07:33:40.528Z,1.88
2022-09-03T07:36:34.301Z,5.18
2022-09-03T07:39:21.531Z,3.03
2022-09-03T07:42:08.943Z,3.38
2022-09-03T07:44:54.165Z,3.22
2022-09-03T07:47:47.742Z,4.70
2022-09-03T07:50:39.153Z,2.83
2022-09-03T07:53:24.941Z,3.30
2022-09-03T07:56:11.534Z,2.45
2022-09-03T07:58:57.799Z,3.03
2022-09-03T08:01:45.006Z,4.00
2022-09-03T08:04:32.443Z,3.40
2022-09-03T08:07:17.953Z,3.25
2022-09-03T08:10:04.662Z,1.23
2022-09-03T08:12:51.359Z,3.75
2022-09-03T08:15:38.172Z,2.47
2022-09-03T08:18:24.256Z,3.50
2022-09-03T08:21:15.499Z,3.25
2022-09-03T08:24:03.787Z,2.90
2022-09-03T08:26:52.018Z,2.85
2022-09-03T08:29:38.207Z,3.22
2022-09-03T08:32:23.795Z,2.00
2022-09-03T08:35:09.965Z,3.17
2022-09-03T08:37:56.933Z,1.27
2022-09-03T08:40:43.295Z,1.25
2022-09-03T08:43:29.331Z,3.00
2022-09-03T08:46:16.642Z,2.38
2022-09-03T08:49:02.474Z,3.60
2022-09-03T08:51:49.388Z,2.95
2022-09-03T08:54:37.491Z,1.58
2022-09-03T08:57:25.765Z,2.47
2022-09-03T09:00:12.014Z,2.58
2022-09-03T09:03:00.435Z,2.55
2022-09-03T09:06:08.036Z,3.65
2022-09-03T09:09:04.056Z,3.03
2022-09-03T09:12:00.094Z,1.92
2022-09-03T09:15:18.655Z,3.60
2022-09-03T09:18:18.957Z,2.78
2022-09-03T09:21:28.664Z,4.20
2022-09-03T09:24:24.322Z,2.90
2022-09-03T09:27:15.951Z,3.63
2022-09-03T09:30:05.644Z,2.33
2022-09-03T09:32:52.514Z,2.30
2022-09-03T09:35:41.866Z,2.10
2022-09-03T09:38:33.008Z,2.65
2022-09-03T09:41:20.576Z,2.78
2022-09-03T09:44:06.531Z,1.73
2022-09-03T09:47:09.607Z,3.17
2022-09-03T09:49:58.108Z,3.65
2022-09-03T09:52:45.859Z,3.17
2022-09-03T09:55:37.610Z,1.67
2022-09-03T09:58:25.419Z,1.27
2022-09-03T10:01:13.377Z,3.80
2022-09-03T10:04:08.085Z,3.65
2022-09-03T10:07:24.028Z,2.83
2022-09-03T10:10:21.379Z,3.50
2022-09-03T10:13:12.911Z,3.13
2022-09-03T10:16:15.785Z,4.13
2022-09-03T10:19:10.580Z,4.03
2022-09-03T10:22:22.782Z,2.10
2022-09-03T10:25:10.058Z,2.25
2022-09-03T10:27:56.804Z,2.00
2022-09-03T10:31:00.388Z,2.85
2022-09-03T10:33:55.154Z,4.05
2022-09-03T10:37:05.670Z,3.13
2022-09-03T10:40:07.433Z,3.70
2022-09-03T10:43:12.204Z,2.25
2022-09-03T10:46:09.816Z,2.88
2022-09-03T10:49:25.583Z,2.35
2022-09-03T10:52:31.005Z,1.98
2022-09-03T10:55:23.200Z,2.35
2022-09-03T10:58:29.464Z,1.40
2022-09-03T11:01:39.863Z,1.70
2022-09-03T11:04:44.478Z,1.98
2022-09-03T11:07:59.632Z,4.50
2022-09-03T11:10:59.741Z,2.17
2022-09-03T11:13:54.984Z,2.08
2022-09-03T11:16:48.435Z,1.45
2022-09-03T11:19:48.040Z,0.45
2022-09-03T11:22:34.983Z,0.17
2022-09-03T11:25:26.022Z,1.42
2022-09-03T11:28:34.762Z,0.22
2022-09-03T11:31:32.836Z,0.90
2022-09-03T11:34:31.995Z,0.63
2022-09-03T11:37:25.052Z,2.80
2022-09-03T11:40:19.523Z,1.42
2022-09-03T11:43:29.419Z,0.20
2022-09-03T11:46:21.958Z,1.20
2022-09-03T11:49:25.505Z,0.63
2022-09-03T11:52:12.279Z,0.75
2022-09-03T11:54:58.530Z,0.13
2022-09-03T11:57:44.351Z,0.28
2022-09-03T12:00:31.035Z,2.17
2022-09-03T12:03:18.014Z,4.28
2022-09-03T12:06:31.197Z,0.75
2022-09-03T12:09:35.692Z,2.05
2022-09-03T12:12:46.219Z,1.50
2022-09-03T12:15:49.552Z,0.10
2022-09-03T12:18:37.198Z,0.52
2022-09-03T12:21:23.161Z,1.75
2022-09-03T12:24:13.652Z,2.45
2022-09-03T12:27:00.967Z,1.00
2022-09-03T12:29:56.734Z,0.65
2022-09-03T12:32:43.556Z,0.20
2022-09-03T12:38:54.717Z,0.10
2022-09-03T12:41:57.452Z,0.15
2022-09-03T12:44:42.810Z,0.10
2022-09-03T12:47:37.330Z,0.93
2022-09-03T12:50:25.101Z,0.73
2022-09-03T12:53:22.804Z,1.95
2022-09-03T12:56:11.031Z,0.25
2022-09-03T12:59:07.584Z,0.47
2022-09-03T13:01:58.655Z,0.30
2022-09-03T13:04:46.246Z,0.15
2022-09-03T13:07:38.281Z,0.70
2022-09-03T13:10:31.397Z,0.10
2022-09-03T13:13:32.235Z,1.05
2022-09-03T13:16:45.003Z,0.50
2022-09-03T13:19:52.674Z,0.10
2022-09-03T13:23:02.515Z,1.13
2022-09-03T13:25:52.617Z,0.73
2022-09-03T13:28:40.990Z,0.63
2022-09-03T13:31:30.953Z,1.08
2022-09-03T13:34:20.772Z,0.73
2022-09-03T13:37:31.112Z,1.23
2022-09-03T13:40:24.794Z,3.00
2022-09-03T13:43:32.321Z,1.42
2022-09-03T13:46:33.805Z,0.38
2022-09-03T13:49:53.142Z,0.57
2022-09-03T13:52:43.772Z,0.63
2022-09-03T13:55:41.960Z,0.10
2022-09-03T13:58:53.760Z,0.75
2022-09-03T14:01:58.600Z,0.52
2022-09-03T14:05:05.607Z,0.32
2022-09-03T14:08:07.530Z,1.85
2022-09-03T14:11:21.387Z,1.30
2022-09-03T14:14:42.468Z,1.20
2022-09-03T14:17:43.672Z,0.73
2022-09-03T14:20:40.579Z,0.43
2022-09-03T14:23:35.939Z,0.50
2022-09-03T14:26:40.024Z,2.17
2022-09-03T14:29:29.888Z,0.40
2022-09-03T14:32:24.855Z,2.00
2022-09-03T14:35:34.991Z,0.10
2022-09-03T14:38:44.886Z,1.48
2022-09-03T14:41:54.996Z,1.52
2022-09-03T14:44:52.833Z,0.70
2022-09-03T14:47:54.967Z,0.10
2022-09-03T14:51:02.005Z,0.50
2022-09-03T14:54:11.455Z,1.65
2022-09-03T14:57:00.250Z,0.52
2022-09-03T15:00:19.784Z,1.90
2022-09-03T15:03:43.342Z,1.67
2022-09-03T15:07:04.819Z,0.17
2022-09-03T15:10:16.859Z,0.93
2022-09-03T15:13:21.270Z,0.52
2022-09-03T15:16:12.945Z,0.10
2022-09-03T15:19:32.643Z,0.85
2022-09-03T15:22:21.116Z,0.20
2022-09-03T15:25:43.966Z,1.53
2022-09-03T15:29:06.298Z,0.28
2022-09-03T15:31:59.591Z,1.30
2022-09-03T15:35:03.373Z,1.25
2022-09-03T15:37:58.501Z,2.03
2022-09-03T15:40:50.938Z,0.63
2022-09-03T15:43:38.632Z,0.32
2022-09-03T15:46:59.837Z,0.10
2022-09-03T15:50:02.401Z,1.55
2022-09-03T15:53:19.412Z,0.35
2022-09-03T15:56:16.421Z,0.30
2022-09-03T15:59:33.604Z,1.65
2022-09-03T16:02:33.967Z,1.25
2022-09-03T16:05:45.723Z,0.57
2022-09-03T16:08:59.498Z,0.65
2022-09-03T16:12:25.088Z,0.10
2022-09-03T16:15:19.820Z,0.65
2022-09-03T16:18:15.502Z,0.30
2022-09-03T16:21:45.594Z,0.63
2022-09-03T16:24:41.955Z,1.05
2022-09-03T16:27:43.441Z,0.43
2022-09-03T16:30:54.846Z,0.10
2022-09-03T16:33:50.891Z,0.50
2022-09-03T16:37:08.080Z,0.10
2022-09-03T16:40:09.814Z,0.10
2022-09-03T16:43:18.057Z,0.35
2022-09-03T16:46:32.273Z,1.13
2022-09-03T16:49:37.970Z,0.10
2022-09-03T16:52:40.957Z,0.60
2022-09-03T16:55:49.950Z,0.15
2022-09-03T16:59:06.434Z,0.30
2022-09-03T17:01:55.273Z,0.10
2022-09-03T17:04:59.845Z,0.10
2022-09-03T17:08:01.252Z,1.95
2022-09-03T17:11:04.336Z,1.98
2022-09-03T17:13:49.993Z,0.40
2022-09-03T17:16:46.344Z,1.48
2022-09-03T17:20:14.395Z,1.83
2022-09-03T17:23:07.076Z,1.55
2022-09-03T17:26:12.245Z,0.60
2022-09-03T17:29:16.812Z,3.15
2022-09-03T17:32:21.243Z,0.77
2022-09-03T17:35:13.151Z,0.45
2022-09-03T17:38:19.942Z,1.85
2022-09-03T17:41:24.928Z,0.40
2022-09-03T17:44:47.640Z,1.38
2022-09-03T17:47:41.478Z,1.20
2022-09-03T17:50:34.118Z,0.28
2022-09-03T17:53:26.967Z,0.90
2022-09-03T17:56:22.248Z,0.98
2022-09-03T17:59:25.164Z,0.65
2022-09-03T18:02:37.515Z,0.30
2022-09-03T18:05:28.261Z,0.93
2022-09-03T18:08:30.762Z,3.83
2022-09-03T18:12:00.115Z,0.63
2022-09-03T18:14:56.106Z,1.77
2022-09-03T18:18:07.127Z,0.80
2022-09-03T18:21:24.361Z,1.90
2022-09-03T18:24:53.765Z,0.10
2022-09-03T18:28:00.716Z,0.52
2022-09-03T18:31:05.003Z,0.90
2022-09-03T18:34:09.044Z,0.73
2022-09-03T18:37:17.586Z,0.10
2022-09-03T18:40:22.601Z,0.40
2022-09-03T18:43:42.391Z,0.10
2022-09-03T18:50:47.602Z,0.10
2022-09-03T18:53:59.142Z,0.10
2022-09-03T18:57:10.968Z,0.17
2022-09-03T19:00:28.823Z,0.30
2022-09-03T19:03:54.066Z,0.20
2022-09-03T19:07:18.681Z,0.75
2022-09-03T19:10:32.069Z,0.10
2022-09-03T19:13:53.913Z,0.20
2022-09-03T19:17:13.217Z,3.35
2022-09-03T19:24:40.430Z,0.30
2022-09-03T19:28:07.108Z,0.10
2022-09-03T19:31:40.085Z,1.38
2022-09-03T19:35:22.047Z,2.90
2022-09-03T19:38:55.758Z,0.10
2022-09-03T19:42:32.422Z,0.10
2022-09-03T19:45:48.601Z,0.52
2022-09-03T19:48:53.095Z,0.20
2022-09-03T19:52:06.485Z,1.63
2022-09-03T19:55:17.432Z,0.10
2022-09-03T19:58:41.923Z,0.93
2022-09-03T20:02:00.998Z,0.52
2022-09-03T20:05:12.677Z,0.20
2022-09-03T20:08:18.638Z,0.88
2022-09-03T20:11:18.067Z,0.10
2022-09-03T20:14:16.073Z,0.22
2022-09-03T20:17:17.137Z,0.57
2022-09-03T20:20:25.413Z,0.68
2022-09-03T20:23:36.642Z,0.13
2022-09-03T20:26:45.036Z,0.17
2022-09-03T20:29:59.097Z,0.45
2022-09-03T20:33:22.682Z,0.10
2022-09-03T20:36:24.152Z,2.17
2022-09-03T20:39:52.620Z,1.00
2022-09-03T20:43:12.693Z,0.30
2022-09-03T20:46:29.984Z,0.30
2022-09-03T20:49:40.514Z,0.30
2022-09-03T20:52:32.237Z,0.25
2022-09-03T20:55:41.801Z,0.10
2022-09-03T20:58:42.332Z,0.47
2022-09-03T21:01:46.655Z,0.15
2022-09-03T21:04:43.951Z,1.02
2022-09-03T21:08:11.330Z,0.30
2022-09-03T21:11:28.898Z,0.10
2022-09-03T21:14:23.707Z,0.20
2022-09-03T21:17:19.783Z,0.20
2022-09-03T21:20:29.132Z,0.10
2022-09-03T21:23:40.954Z,0.10
2022-09-03T21:26:31.167Z,0.63
2022-09-03T21:29:30.941Z,0.65
2022-09-03T21:32:18.899Z,0.63
2022-09-03T21:35:26.675Z,0.10
2022-09-03T21:38:22.229Z,0.30
2022-09-03T21:41:31.227Z,0.17
2022-09-03T21:44:39.581Z,0.90
2022-09-03T21:47:28.426Z,0.40
2022-09-03T21:50:42.007Z,0.13
2022-09-03T21:53:33.285Z,0.47
2022-09-03T21:56:42.591Z,0.55
2022-09-03T21:59:50.787Z,0.10
2022-09-03T22:02:36.726Z,0.60
2022-09-03T22:05:23.725Z,2.30
2022-09-03T22:08:17.449Z,0.95
2022-09-03T22:11:16.306Z,0.47
2022-09-03T22:14:10.334Z,0.40
2022-09-03T22:17:07.350Z,0.50
2022-09-03T22:19:53.180Z,1.10
2022-09-03T22:22:57.596Z,0.68
2022-09-03T22:25:59.142Z,0.20
2022-09-03T22:29:08.937Z,0.47
2022-09-03T22:32:30.510Z,0.10
2022-09-03T22:35:31.264Z,0.10
2022-09-03T22:38:42.233Z,0.10
2022-09-03T22:41:49.168Z,0.55
2022-09-03T22:44:52.989Z,0.80
2022-09-03T22:47:38.620Z,0.38
2022-09-03T22:50:31.184Z,0.63
2022-09-03T22:53:41.541Z,0.93
2022-09-03T22:56:33.037Z,0.10
2022-09-03T22:59:55.482Z,0.10
2022-09-03T23:02:42.404Z,0.10
2022-09-03T23:05:40.594Z,0.08
2022-09-03T23:08:39.590Z,0.50
2022-09-03T23:11:30.045Z,0.10
2022-09-03T23:14:28.648Z,0.20
2022-09-03T23:20:27.878Z,0.45
2022-09-03T23:23:18.681Z,0.10
2022-09-03T23:26:23.583Z,0.10
2022-09-03T23:29:36.498Z,0.30
2022-09-03T23:32:23.079Z,0.30
2022-09-03T23:35:18.397Z,0.65
2022-09-03T23:38:15.884Z,0.10
2022-09-03T23:41:07.003Z,0.15
2022-09-03T23:44:02.135Z,0.40
2022-09-03T23:47:02.376Z,0.43
2022-09-03T23:49:56.923Z,0.10
2022-09-03T23:53:17.370Z,0.10
2022-09-03T23:56:21.984Z,0.20
2022-09-03T23:59:35.249Z,0.65
